Pagina principale
METAR-TAF:

METAR-TAF

Aeroporti :

Genova, Italia

Aeroporto di Genova-Sestri

latitudine: 44-25N, longitudine: 008-51E, altezza: 2 m

Osservazione

Il bollettino è stato emesso 28 minuti fa, alle 05:20 UTC
Vento 16 kt da nord con raffiche fino a 28 kt, variando fra nord/nord-ovest e nord-est
Temperature 7°C
Umidità 26%
Pressione 1018 hPa
Visibilità 10 km o più
nessuna nube inferiore a 1500 m e nessun cumulonembo

METAR: LIMJ 180520Z 01016G28KT 330V040 CAVOK 07/M11 Q1018

Ora: 06:48 (05:48 UTC)

Previsione

Il bollettino è stato emesso 48 minuti fa, alle 05:00 UTC
Previsione valida dal 18 alle 06 UTC al 19 alle 06 UTC
Vento 18 kt da nord
Visibilità 10 km o più
nessuna nube inferiore a 1500 m e nessun cumulonembo
Temporaneamente
dal 18 alle 06 UTC al 18 alle 18 UTC
Vento 20 kt da nord con raffiche fino a 35 kt

TAF: LIMJ 180500Z 1806/1906 01018KT CAVOK TEMPO 1806/1818 01020G35KT

Osservazioni e previsioni meteorologiche di più di 4000 aeroporti (messaggi METAR e TAF).

Le stazioni disponibili sono rappresentate dai dischi gialli e rossi sulla carta.

Puntare il mouse per vedere il nome della stazione.

Clicca sopra per visualizzare le osservazioni e previsioni meteorologiche.

Per cambiare la mappa : fare clic sui pulsanti verdi con una croce nera per ingrandire, il pulsante verde con un trattino per diminuire, o sulla freccia verde per le mappe adiacenti.


METAR-TAF: